createdAt,value
2022-07-27T00:01:38.091Z,1.10
2022-07-27T00:04:08.638Z,1.00
2022-07-27T00:06:41.266Z,1.25
2022-07-27T00:09:09.725Z,1.40
2022-07-27T00:11:44.190Z,1.63
2022-07-27T00:14:14.646Z,1.17
2022-07-27T00:16:45.537Z,1.45
2022-07-27T00:19:18.086Z,1.30
2022-07-27T00:21:46.403Z,1.15
2022-07-27T00:24:19.188Z,1.13
2022-07-27T00:26:52.063Z,1.10
2022-07-27T00:29:24.668Z,1.27
2022-07-27T00:31:56.132Z,1.20
2022-07-27T00:34:29.914Z,1.30
2022-07-27T00:37:06.139Z,1.25
2022-07-27T00:39:35.430Z,1.70
2022-07-27T00:42:02.211Z,1.17
2022-07-27T00:44:32.539Z,1.08
2022-07-27T00:47:02.440Z,1.45
2022-07-27T00:49:35.710Z,1.25
2022-07-27T00:52:02.835Z,1.10
2022-07-27T00:54:30.427Z,1.17
2022-07-27T00:57:00.243Z,1.40
2022-07-27T00:59:31.508Z,1.38
2022-07-27T01:02:01.759Z,1.20
2022-07-27T01:04:35.718Z,1.23
2022-07-27T01:07:09.364Z,1.25
2022-07-27T01:09:54.543Z,1.48
2022-07-27T01:12:26.867Z,1.25
2022-07-27T01:15:00.819Z,1.30
2022-07-27T01:17:31.218Z,1.50
2022-07-27T01:20:02.104Z,1.20
2022-07-27T01:22:32.348Z,1.50
2022-07-27T01:25:02.737Z,1.20
2022-07-27T01:27:36.398Z,1.27
2022-07-27T01:30:36.979Z,1.10
2022-07-27T01:33:08.007Z,1.30
2022-07-27T01:35:39.067Z,1.27
2022-07-27T01:38:07.160Z,1.33
2022-07-27T01:40:38.944Z,1.50
2022-07-27T01:43:11.267Z,1.17
2022-07-27T01:45:44.389Z,1.10
2022-07-27T01:48:14.326Z,1.38
2022-07-27T01:50:44.831Z,1.27
2022-07-27T01:53:17.757Z,1.30
2022-07-27T01:55:51.813Z,1.13
2022-07-27T01:58:23.424Z,1.63
2022-07-27T02:00:54.860Z,1.10
2022-07-27T02:03:27.422Z,1.20
2022-07-27T02:05:54.340Z,1.27
2022-07-27T02:08:26.198Z,1.35
2022-07-27T02:11:15.008Z,1.00
2022-07-27T02:13:45.085Z,1.40
2022-07-27T02:16:19.003Z,1.40
2022-07-27T02:18:53.155Z,1.20
2022-07-27T02:21:24.331Z,1.15
2022-07-27T02:23:57.422Z,1.00
2022-07-27T02:26:25.021Z,0.98
2022-07-27T02:29:01.468Z,0.90
2022-07-27T02:31:37.553Z,1.40
2022-07-27T02:34:10.535Z,1.10
2022-07-27T02:36:40.732Z,1.10
2022-07-27T02:39:11.250Z,1.17
2022-07-27T02:41:44.611Z,0.93
2022-07-27T02:44:13.694Z,0.95
2022-07-27T02:46:41.389Z,0.93
2022-07-27T02:49:10.281Z,0.95
2022-07-27T02:51:37.569Z,1.00
2022-07-27T02:54:12.563Z,1.00
2022-07-27T02:56:46.005Z,1.02
2022-07-27T02:59:16.004Z,0.90
2022-07-27T03:01:47.797Z,0.90
2022-07-27T03:04:18.698Z,1.15
2022-07-27T03:06:51.462Z,1.02
2022-07-27T03:09:32.770Z,0.90
2022-07-27T03:12:05.918Z,0.70
2022-07-27T03:14:39.210Z,0.98
2022-07-27T03:17:06.243Z,0.93
2022-07-27T03:19:36.553Z,1.20
2022-07-27T03:22:06.588Z,1.00
2022-07-27T03:24:34.846Z,1.00
2022-07-27T03:27:07.997Z,0.90
2022-07-27T03:29:38.907Z,0.80
2022-07-27T03:32:16.911Z,0.93
2022-07-27T03:34:50.388Z,1.48
2022-07-27T03:37:22.616Z,1.10
2022-07-27T03:39:55.606Z,0.65
2022-07-27T03:42:28.803Z,1.00
2022-07-27T03:45:01.892Z,1.05
2022-07-27T03:47:28.816Z,1.45
2022-07-27T03:50:01.681Z,1.00
2022-07-27T03:52:37.751Z,1.08
2022-07-27T03:55:10.851Z,1.10
2022-07-27T03:57:37.866Z,1.13
2022-07-27T04:00:09.364Z,1.17
2022-07-27T04:02:39.765Z,0.95
2022-07-27T04:05:07.317Z,1.20
2022-07-27T04:07:37.227Z,0.93
2022-07-27T04:10:10.310Z,1.00
2022-07-27T04:12:41.408Z,0.98
2022-07-27T04:15:14.804Z,1.08
2022-07-27T04:17:53.538Z,1.05
2022-07-27T04:20:25.065Z,1.10
2022-07-27T04:22:58.412Z,1.02
2022-07-27T04:25:28.808Z,1.00
2022-07-27T04:27:56.233Z,1.20
2022-07-27T04:30:28.866Z,0.98
2022-07-27T04:32:56.071Z,1.02
2022-07-27T04:35:28.855Z,1.02
2022-07-27T04:37:59.856Z,1.20
2022-07-27T04:40:33.985Z,0.95
2022-07-27T04:43:04.912Z,1.30
2022-07-27T04:45:35.180Z,1.00
2022-07-27T04:48:11.025Z,1.00
2022-07-27T04:50:53.617Z,1.08
2022-07-27T04:53:23.463Z,1.35
2022-07-27T04:55:55.235Z,1.00
2022-07-27T04:58:31.338Z,1.13
2022-07-27T05:01:04.416Z,1.08
2022-07-27T05:03:34.588Z,1.08
2022-07-27T05:06:05.106Z,1.05
2022-07-27T05:08:32.231Z,0.93
2022-07-27T05:11:08.779Z,0.93
2022-07-27T05:13:43.058Z,0.85
2022-07-27T05:16:16.002Z,0.90
2022-07-27T05:18:45.721Z,0.90
2022-07-27T05:21:19.012Z,0.85
2022-07-27T05:23:48.962Z,0.65
2022-07-27T05:26:22.572Z,0.70
2022-07-27T05:28:55.741Z,0.90
2022-07-27T05:31:26.251Z,0.70
2022-07-27T05:33:58.400Z,1.10
2022-07-27T05:36:30.106Z,1.00
2022-07-27T05:39:03.058Z,1.00
2022-07-27T05:41:36.814Z,0.82
2022-07-27T05:44:11.749Z,0.65
2022-07-27T05:46:43.032Z,0.80
2022-07-27T05:49:15.358Z,0.80
2022-07-27T05:51:51.956Z,0.77
2022-07-27T05:54:20.317Z,0.93
2022-07-27T05:56:47.528Z,1.05
2022-07-27T05:59:20.657Z,1.00
2022-07-27T06:01:56.704Z,1.08
2022-07-27T06:04:30.006Z,1.15
2022-07-27T06:07:18.229Z,0.98
2022-07-27T06:09:53.049Z,0.95
2022-07-27T06:12:30.055Z,0.75
2022-07-27T06:15:03.052Z,1.35
2022-07-27T06:17:33.117Z,1.00
2022-07-27T06:20:01.961Z,0.88
2022-07-27T06:22:36.262Z,1.55
2022-07-27T06:25:09.271Z,0.88
2022-07-27T06:27:39.805Z,1.15
2022-07-27T06:30:07.202Z,1.48
2022-07-27T06:32:36.808Z,1.27
2022-07-27T06:35:06.995Z,1.23
2022-07-27T06:37:35.111Z,1.40
2022-07-27T06:40:10.678Z,1.52
2022-07-27T06:42:43.207Z,0.98
2022-07-27T06:45:16.213Z,1.95
2022-07-27T06:47:49.578Z,1.17
2022-07-27T06:50:20.854Z,1.33
2022-07-27T06:52:53.952Z,1.48
2022-07-27T06:55:28.555Z,1.15
2022-07-27T06:57:58.371Z,0.98
2022-07-27T07:00:31.719Z,1.30
2022-07-27T07:03:06.346Z,0.90
2022-07-27T07:05:47.710Z,1.20
2022-07-27T07:08:25.303Z,1.08
2022-07-27T07:10:55.491Z,1.38
2022-07-27T07:13:28.491Z,1.15
2022-07-27T07:15:55.940Z,1.52
2022-07-27T07:18:22.991Z,1.25
2022-07-27T07:20:53.271Z,0.98
2022-07-27T07:23:20.654Z,1.20
2022-07-27T07:25:50.888Z,1.00
2022-07-27T07:28:22.605Z,1.30
2022-07-27T07:30:54.189Z,1.35
2022-07-27T07:33:22.123Z,0.95
2022-07-27T07:36:12.702Z,1.17
2022-07-27T07:38:45.373Z,1.25
2022-07-27T07:41:16.182Z,1.25
2022-07-27T07:43:46.435Z,1.00
2022-07-27T07:46:15.282Z,1.40
2022-07-27T07:48:46.614Z,1.40
2022-07-27T07:51:18.643Z,1.48
2022-07-27T07:53:48.934Z,1.60
2022-07-27T07:56:24.834Z,1.10
2022-07-27T07:58:55.255Z,1.90
2022-07-27T08:01:28.678Z,1.48
2022-07-27T08:03:58.549Z,1.33
2022-07-27T08:06:29.839Z,1.80
2022-07-27T08:09:02.422Z,1.48
2022-07-27T08:11:33.438Z,1.90
2022-07-27T08:14:00.448Z,1.70
2022-07-27T08:16:28.435Z,2.03
2022-07-27T08:18:55.429Z,1.42
2022-07-27T08:21:25.827Z,1.70
2022-07-27T08:23:58.646Z,1.77
2022-07-27T08:26:31.478Z,2.00
2022-07-27T08:29:13.430Z,1.70
2022-07-27T08:31:52.582Z,1.70
2022-07-27T08:34:23.501Z,1.55
2022-07-27T08:36:56.989Z,1.83
2022-07-27T08:40:20.039Z,1.45
2022-07-27T08:42:20.572Z,1.45
2022-07-27T08:44:51.186Z,1.30
2022-07-27T08:47:24.811Z,1.60
2022-07-27T08:49:55.525Z,1.33
2022-07-27T08:52:23.899Z,1.40
2022-07-27T08:54:56.965Z,1.38
2022-07-27T08:57:24.106Z,1.45
2022-07-27T08:59:57.228Z,1.10
2022-07-27T09:02:43.401Z,1.20
2022-07-27T09:05:11.063Z,1.40
2022-07-27T09:07:42.434Z,1.27
2022-07-27T09:10:13.787Z,1.13
2022-07-27T09:12:49.814Z,1.30
2022-07-27T09:15:22.199Z,1.25
2022-07-27T09:17:53.044Z,1.20
2022-07-27T09:20:21.340Z,1.20
2022-07-27T09:22:51.521Z,1.60
2022-07-27T09:26:00.342Z,1.23
2022-07-27T09:28:29.847Z,1.20
2022-07-27T09:31:05.648Z,1.00
2022-07-27T09:33:48.441Z,1.27
2022-07-27T09:36:19.908Z,1.65
2022-07-27T09:39:02.057Z,0.68
2022-07-27T09:41:41.871Z,1.00
2022-07-27T09:44:31.282Z,1.20
2022-07-27T09:47:02.739Z,0.93
2022-07-27T09:49:32.426Z,1.10
2022-07-27T09:52:01.666Z,1.20
2022-07-27T09:54:52.467Z,1.23
2022-07-27T09:57:23.187Z,1.08
2022-07-27T10:00:11.038Z,0.82
2022-07-27T10:02:43.746Z,0.88
2022-07-27T10:05:11.116Z,0.90
2022-07-27T10:07:42.954Z,1.00
2022-07-27T10:10:13.897Z,0.70
2022-07-27T10:12:43.471Z,0.73
2022-07-27T10:15:18.090Z,1.10
2022-07-27T10:17:50.736Z,0.77
2022-07-27T10:20:21.797Z,1.00
2022-07-27T10:22:52.833Z,0.82
2022-07-27T10:25:20.326Z,1.00
2022-07-27T10:28:10.593Z,0.43
2022-07-27T10:30:46.322Z,0.80
2022-07-27T10:33:39.736Z,0.80
2022-07-27T10:36:20.809Z,0.82
2022-07-27T10:38:55.037Z,1.02
2022-07-27T10:41:43.842Z,0.68
2022-07-27T10:44:23.073Z,0.80
2022-07-27T10:47:03.145Z,0.80
2022-07-27T10:49:31.469Z,0.40
2022-07-27T10:52:03.943Z,1.00
2022-07-27T10:54:37.979Z,0.95
2022-07-27T10:57:11.311Z,1.38
2022-07-27T11:00:08.065Z,0.85
2022-07-27T11:02:42.888Z,0.60
2022-07-27T11:05:57.969Z,0.73
2022-07-27T11:08:35.442Z,1.17
2022-07-27T11:10:54.517Z,0.80
2022-07-27T11:13:25.742Z,1.20
2022-07-27T11:16:23.281Z,1.10
2022-07-27T11:18:55.264Z,1.13
2022-07-27T11:21:28.098Z,1.20
2022-07-27T11:24:02.300Z,1.02
2022-07-27T11:26:30.797Z,1.00
2022-07-27T11:28:58.783Z,1.50
2022-07-27T11:31:54.151Z,1.30
2022-07-27T11:34:20.747Z,1.27
2022-07-27T11:36:52.336Z,1.30
2022-07-27T11:39:59.349Z,1.17
2022-07-27T11:42:21.108Z,1.02
2022-07-27T11:44:53.478Z,1.00
2022-07-27T11:47:21.941Z,1.20
2022-07-27T11:49:49.105Z,1.45
2022-07-27T11:52:21.773Z,1.08
2022-07-27T11:54:52.645Z,1.10
2022-07-27T11:57:21.017Z,1.42
2022-07-27T11:59:51.642Z,1.05
2022-07-27T12:02:20.687Z,1.35
2022-07-27T12:04:48.973Z,1.13
2022-07-27T12:07:20.067Z,0.77
2022-07-27T12:09:52.586Z,1.00
2022-07-27T12:12:22.430Z,1.27
2022-07-27T12:14:54.858Z,1.30
2022-07-27T12:17:27.278Z,1.17
2022-07-27T12:20:14.589Z,0.65
2022-07-27T12:22:51.969Z,1.25
2022-07-27T12:25:25.681Z,0.73
2022-07-27T12:28:01.563Z,1.20
2022-07-27T12:30:34.901Z,0.98
2022-07-27T12:33:03.205Z,1.15
2022-07-27T12:35:40.721Z,1.08
2022-07-27T12:38:12.474Z,1.13
2022-07-27T12:40:49.814Z,1.50
2022-07-27T12:43:18.512Z,1.40
2022-07-27T12:45:49.682Z,1.08
2022-07-27T12:48:29.724Z,0.80
2022-07-27T12:51:01.204Z,0.88
2022-07-27T12:53:28.992Z,1.00
2022-07-27T12:56:00.970Z,0.98
2022-07-27T12:58:31.251Z,0.80
2022-07-27T13:01:03.975Z,0.90
2022-07-27T13:03:36.913Z,0.80
2022-07-27T13:06:12.805Z,1.10
2022-07-27T13:08:40.968Z,0.88
2022-07-27T13:11:08.134Z,0.90
2022-07-27T13:13:35.364Z,1.00
2022-07-27T13:16:08.022Z,1.10
2022-07-27T13:18:35.284Z,0.90
2022-07-27T13:21:03.556Z,1.00
2022-07-27T13:23:34.044Z,0.95
2022-07-27T13:26:02.140Z,1.00
2022-07-27T13:28:34.384Z,0.70
2022-07-27T13:31:10.738Z,0.75
2022-07-27T13:33:39.140Z,1.10
2022-07-27T13:36:07.699Z,0.73
2022-07-27T13:38:34.890Z,0.80
2022-07-27T13:41:02.208Z,0.80
2022-07-27T13:43:32.464Z,0.90
2022-07-27T13:45:59.831Z,1.00
2022-07-27T13:48:34.108Z,0.70
2022-07-27T13:51:01.460Z,1.00
2022-07-27T13:53:33.923Z,1.00
2022-07-27T13:56:05.274Z,0.98
2022-07-27T13:58:34.892Z,1.00
2022-07-27T14:01:07.340Z,0.80
2022-07-27T14:03:34.829Z,1.00
2022-07-27T14:06:06.657Z,0.80
2022-07-27T14:08:38.130Z,1.00
2022-07-27T14:11:05.614Z,0.82
2022-07-27T14:13:41.049Z,0.80
2022-07-27T14:16:11.235Z,0.93
2022-07-27T14:18:42.944Z,1.02
2022-07-27T14:21:11.951Z,0.80
2022-07-27T14:23:43.023Z,0.90
2022-07-27T14:26:16.496Z,0.88
2022-07-27T14:28:45.198Z,0.57
2022-07-27T14:31:15.887Z,0.80
2022-07-27T14:33:47.840Z,1.00
2022-07-27T14:36:15.501Z,0.90
2022-07-27T14:38:48.616Z,0.77
2022-07-27T14:41:19.331Z,0.70
2022-07-27T14:43:47.012Z,0.98
2022-07-27T14:46:17.605Z,0.90
2022-07-27T14:49:05.627Z,0.80
2022-07-27T14:51:36.223Z,0.90
2022-07-27T14:54:04.128Z,0.80
2022-07-27T14:56:33.992Z,0.90
2022-07-27T14:59:06.070Z,1.00
2022-07-27T15:01:33.259Z,0.80
2022-07-27T15:04:01.643Z,0.82
2022-07-27T15:06:39.257Z,0.77
2022-07-27T15:09:12.693Z,1.40
2022-07-27T15:11:45.794Z,0.88
2022-07-27T15:14:20.823Z,0.70
2022-07-27T15:16:52.929Z,0.90
2022-07-27T15:19:26.147Z,0.82
2022-07-27T15:21:53.227Z,0.90
2022-07-27T15:24:23.429Z,0.60
2022-07-27T15:26:56.552Z,0.90
2022-07-27T15:29:27.067Z,0.90
2022-07-27T15:31:54.583Z,0.88
2022-07-27T15:34:28.248Z,1.15
2022-07-27T15:36:58.898Z,1.10
2022-07-27T15:39:31.171Z,0.88
2022-07-27T15:42:01.095Z,1.00
2022-07-27T15:44:30.853Z,0.80
2022-07-27T15:47:01.257Z,0.85
2022-07-27T15:49:34.590Z,1.10
2022-07-27T15:52:10.772Z,0.90
2022-07-27T15:54:43.700Z,0.80
2022-07-27T15:57:14.034Z,1.10
2022-07-27T15:59:44.306Z,0.98
2022-07-27T16:02:24.564Z,1.20
2022-07-27T16:04:56.936Z,0.90
2022-07-27T16:07:25.258Z,0.90
2022-07-27T16:09:52.654Z,0.93
2022-07-27T16:12:22.787Z,1.05
2022-07-27T16:14:56.507Z,1.05
2022-07-27T16:17:26.577Z,0.90
2022-07-27T16:19:56.360Z,0.90
2022-07-27T16:22:32.139Z,1.00
2022-07-27T16:25:05.140Z,1.00
2022-07-27T16:27:32.601Z,1.20
2022-07-27T16:30:02.940Z,0.95
2022-07-27T16:32:38.622Z,1.00
2022-07-27T16:35:11.869Z,0.93
2022-07-27T16:37:42.495Z,0.80
2022-07-27T16:40:10.144Z,1.00
2022-07-27T16:42:38.214Z,0.88
2022-07-27T16:45:09.529Z,0.90
2022-07-27T16:47:37.048Z,0.85
2022-07-27T16:50:05.255Z,1.00
2022-07-27T16:52:33.739Z,0.80
2022-07-27T16:55:04.493Z,1.02
2022-07-27T16:57:37.677Z,0.70
2022-07-27T17:00:13.684Z,0.80
2022-07-27T17:02:50.177Z,1.20
2022-07-27T17:05:22.761Z,0.70
2022-07-27T17:07:52.721Z,1.00
2022-07-27T17:10:27.105Z,0.90
2022-07-27T17:13:01.548Z,1.05
2022-07-27T17:15:32.588Z,1.00
2022-07-27T17:18:03.712Z,0.80
2022-07-27T17:20:35.246Z,0.90
2022-07-27T17:23:03.817Z,0.70
2022-07-27T17:25:36.930Z,1.00
2022-07-27T17:28:06.136Z,0.90
2022-07-27T17:30:38.103Z,0.88
2022-07-27T17:33:05.714Z,1.00
2022-07-27T17:35:33.812Z,0.80
2022-07-27T17:38:07.090Z,0.77
2022-07-27T17:40:37.969Z,0.73
2022-07-27T17:43:05.166Z,0.90
2022-07-27T17:45:35.447Z,0.75
2022-07-27T17:48:06.275Z,0.80
2022-07-27T17:50:37.989Z,0.70
2022-07-27T17:53:05.142Z,0.75
2022-07-27T17:55:36.590Z,0.80
2022-07-27T17:58:06.637Z,1.02
2022-07-27T18:00:43.376Z,0.73
2022-07-27T18:03:13.477Z,0.73
2022-07-27T18:05:40.709Z,0.90
2022-07-27T18:08:13.223Z,0.68
2022-07-27T18:10:40.589Z,1.00
2022-07-27T18:13:10.569Z,0.90
2022-07-27T18:15:54.824Z,0.88
2022-07-27T18:18:26.608Z,0.90
2022-07-27T18:20:55.186Z,0.80
2022-07-27T18:23:35.057Z,0.82
2022-07-27T18:26:08.403Z,0.90
2022-07-27T18:28:40.254Z,0.90
2022-07-27T18:31:12.694Z,0.93
2022-07-27T18:33:47.990Z,0.85
2022-07-27T18:36:16.989Z,0.80
2022-07-27T18:38:45.432Z,0.80
2022-07-27T18:41:20.358Z,0.90
2022-07-27T18:43:56.749Z,0.65
2022-07-27T18:46:31.642Z,0.70
2022-07-27T18:49:05.556Z,0.55
2022-07-27T18:51:40.135Z,0.90
2022-07-27T18:54:12.840Z,0.77
2022-07-27T18:56:42.833Z,1.02
2022-07-27T18:59:16.562Z,0.70
2022-07-27T19:01:48.387Z,0.80
2022-07-27T19:04:18.621Z,0.70
2022-07-27T19:06:50.853Z,0.85
2022-07-27T19:09:22.141Z,0.80
2022-07-27T19:11:52.821Z,1.00
2022-07-27T19:14:26.268Z,0.70
2022-07-27T19:16:54.160Z,0.88
2022-07-27T19:19:23.247Z,0.70
2022-07-27T19:21:52.075Z,0.70
2022-07-27T19:24:21.316Z,0.60
2022-07-27T19:26:54.209Z,0.70
2022-07-27T19:29:29.749Z,0.75
2022-07-27T19:32:01.988Z,0.98
2022-07-27T19:34:29.996Z,0.60
2022-07-27T19:37:00.743Z,0.60
2022-07-27T19:39:30.278Z,0.82
2022-07-27T19:42:20.143Z,0.65
2022-07-27T19:44:48.746Z,0.93
2022-07-27T19:47:19.303Z,0.70
2022-07-27T19:49:47.018Z,0.73
2022-07-27T19:52:17.958Z,0.63
2022-07-27T19:54:45.758Z,0.90
2022-07-27T19:57:18.276Z,0.90
2022-07-27T19:59:56.491Z,0.80
2022-07-27T20:02:30.925Z,0.82
2022-07-27T20:05:00.996Z,0.80
2022-07-27T20:07:28.055Z,0.70
2022-07-27T20:09:55.255Z,1.00
2022-07-27T20:12:26.288Z,0.60
2022-07-27T20:14:59.633Z,0.80
2022-07-27T20:17:26.777Z,0.63
2022-07-27T20:19:53.963Z,0.75
2022-07-27T20:22:24.214Z,0.80
2022-07-27T20:24:57.039Z,0.80
2022-07-27T20:27:27.522Z,0.85
2022-07-27T20:30:00.395Z,1.02
2022-07-27T20:32:36.422Z,0.70
2022-07-27T20:35:07.336Z,0.70
2022-07-27T20:37:37.867Z,0.77
2022-07-27T20:40:07.918Z,0.80
2022-07-27T20:42:40.290Z,0.80
2022-07-27T20:45:11.982Z,0.70
2022-07-27T20:47:49.995Z,1.00
2022-07-27T20:50:22.942Z,0.80
2022-07-27T20:52:53.833Z,0.70
2022-07-27T20:55:22.123Z,0.80
2022-07-27T20:57:55.036Z,0.95
2022-07-27T21:00:28.954Z,0.90
2022-07-27T21:02:57.816Z,0.80
2022-07-27T21:05:29.201Z,0.90
2022-07-27T21:08:02.459Z,0.60
2022-07-27T21:10:32.956Z,0.80
2022-07-27T21:13:03.318Z,0.80
2022-07-27T21:15:36.651Z,0.75
2022-07-27T21:18:06.434Z,0.85
2022-07-27T21:20:36.707Z,0.63
2022-07-27T21:23:25.269Z,0.88
2022-07-27T21:25:52.647Z,0.85
2022-07-27T21:28:23.663Z,1.00
2022-07-27T21:30:55.064Z,0.85
2022-07-27T21:33:24.759Z,0.73
2022-07-27T21:35:55.628Z,0.70
2022-07-27T21:38:25.937Z,0.63
2022-07-27T21:40:56.234Z,0.70
2022-07-27T21:43:30.109Z,0.70
2022-07-27T21:46:00.516Z,0.85
2022-07-27T21:48:30.541Z,1.00
2022-07-27T21:51:00.931Z,0.88
2022-07-27T21:53:31.969Z,0.75
2022-07-27T21:56:03.509Z,0.60
2022-07-27T21:58:36.845Z,0.90
2022-07-27T22:01:08.911Z,0.70
2022-07-27T22:03:45.009Z,0.68
2022-07-27T22:06:15.218Z,0.63
2022-07-27T22:08:49.062Z,0.73
2022-07-27T22:11:20.000Z,0.63
2022-07-27T22:13:51.890Z,0.95
2022-07-27T22:16:24.724Z,1.00
2022-07-27T22:18:58.015Z,0.65
2022-07-27T22:21:32.198Z,0.65
